Time,TemperatureF,DewpointF,PressureIn,WindDirection,WindDirectionDegrees,WindSpeedMPH,WindSpeedGustMPH,Humidity,HourlyPrecipIn,Conditions,Clouds,dailyrainin,SoftwareType,DateUTC
2013-03-29 00:00:00,40.0,-99.9,-100.00,WNW,282,10.0,15.0,-999,-99.99,,,-99.99,,2013-03-29 04:00:00,
2013-03-29 00:23:00,40.0,-99.9,-100.00,WNW,282,10.0,15.0,-999,-99.99,,,-99.99,,2013-03-29 04:23:00,
2013-03-29 00:33:00,40.0,-99.9,-100.00,WNW,282,10.0,15.0,-999,-99.99,,,-99.99,,2013-03-29 04:33:00,
2013-03-29 00:43:00,40.0,-99.9,-100.00,WNW,282,10.0,15.0,-999,-99.99,,,-99.99,,2013-03-29 04:43:00,
2013-03-29 00:53:00,40.0,-99.9,-100.00,WNW,282,10.0,15.0,-999,-99.99,,,-99.99,,2013-03-29 04:53:00,
2013-03-29 01:00:00,39.0,-99.9,-100.00,WNW,286,13.0,16.0,-999,-99.99,,,-99.99,,2013-03-29 05:00:00,
2013-03-29 01:23:00,39.0,-99.9,-100.00,WNW,286,13.0,16.0,-999,-99.99,,,-99.99,,2013-03-29 05:23:00,
2013-03-29 01:33:00,39.0,-99.9,-100.00,WNW,286,13.0,16.0,-999,-99.99,,,-99.99,,2013-03-29 05:33:00,
2013-03-29 01:44:00,39.0,-99.9,-100.00,WNW,286,13.0,16.0,-999,-99.99,,,-99.99,,2013-03-29 05:44:00,
2013-03-29 01:53:00,39.0,-99.9,-100.00,WNW,286,13.0,16.0,-999,-99.99,,,-99.99,,2013-03-29 05:53:00,
2013-03-29 02:00:00,39.0,-99.9,-100.00,WNW,292,10.0,15.0,-999,-99.99,,,-99.99,,2013-03-29 06:00:00,
2013-03-29 02:23:00,39.0,-99.9,-100.00,WNW,292,10.0,15.0,-999,-99.99,,,-99.99,,2013-03-29 06:23:00,
2013-03-29 02:32:00,39.0,-99.9,-100.00,WNW,292,10.0,15.0,-999,-99.99,,,-99.99,,2013-03-29 06:32:00,
2013-03-29 02:42:00,39.0,-99.9,-100.00,WNW,292,10.0,15.0,-999,-99.99,,,-99.99,,2013-03-29 06:42:00,
2013-03-29 02:52:00,39.0,-99.9,-100.00,WNW,292,10.0,15.0,-999,-99.99,,,-99.99,,2013-03-29 06:52:00,
2013-03-29 03:00:00,39.0,-99.9,-100.00,WNW,294,8.0,12.0,-999,-99.99,,,-99.99,,2013-03-29 07:00:00,
2013-03-29 03:22:00,39.0,-99.9,-100.00,WNW,294,8.0,12.0,-999,-99.99,,,-99.99,,2013-03-29 07:22:00,
2013-03-29 03:32:00,39.0,-99.9,-100.00,WNW,294,8.0,12.0,-999,-99.99,,,-99.99,,2013-03-29 07:32:00,
2013-03-29 03:42:00,39.0,-99.9,-100.00,WNW,294,8.0,12.0,-999,-99.99,,,-99.99,,2013-03-29 07:42:00,
2013-03-29 03:52:00,39.0,-99.9,-100.00,WNW,294,8.0,12.0,-999,-99.99,,,-99.99,,2013-03-29 07:52:00,
2013-03-29 04:00:00,38.0,-99.9,-100.00,WNW,293,8.0,12.0,-999,-99.99,,,-99.99,,2013-03-29 08:00:00,
2013-03-29 04:22:00,38.0,-99.9,-100.00,WNW,293,8.0,12.0,-999,-99.99,,,-99.99,,2013-03-29 08:22:00,
2013-03-29 04:32:00,38.0,-99.9,-100.00,WNW,293,8.0,12.0,-999,-99.99,,,-99.99,,2013-03-29 08:32:00,
2013-03-29 04:42:00,38.0,-99.9,-100.00,WNW,293,8.0,12.0,-999,-99.99,,,-99.99,,2013-03-29 08:42:00,
2013-03-29 04:53:00,38.0,-99.9,-100.00,WNW,293,8.0,12.0,-999,-99.99,,,-99.99,,2013-03-29 08:53:00,
2013-03-29 05:00:00,38.0,-99.9,-100.00,WNW,287,9.0,12.0,-999,-99.99,,,-99.99,,2013-03-29 09:00:00,
2013-03-29 05:22:00,38.0,-99.9,-100.00,WNW,287,9.0,12.0,-999,-99.99,,,-99.99,,2013-03-29 09:22:00,
2013-03-29 05:33:00,38.0,-99.9,-100.00,WNW,287,9.0,12.0,-999,-99.99,,,-99.99,,2013-03-29 09:33:00,
2013-03-29 05:43:00,38.0,-99.9,-100.00,WNW,287,9.0,12.0,-999,-99.99,,,-99.99,,2013-03-29 09:43:00,
2013-03-29 05:53:00,38.0,-99.9,-100.00,WNW,287,9.0,12.0,-999,-99.99,,,-99.99,,2013-03-29 09:53:00,
2013-03-29 06:00:00,38.0,-99.9,-100.00,WNW,286,8.0,12.0,-999,-99.99,,,-99.99,,2013-03-29 10:00:00,
2013-03-29 06:23:00,38.0,-99.9,-100.00,WNW,286,8.0,12.0,-999,-99.99,,,-99.99,,2013-03-29 10:23:00,
2013-03-29 06:33:00,38.0,-99.9,-100.00,WNW,286,8.0,12.0,-999,-99.99,,,-99.99,,2013-03-29 10:33:00,
2013-03-29 06:43:00,38.0,-99.9,-100.00,WNW,286,8.0,12.0,-999,-99.99,,,-99.99,,2013-03-29 10:43:00,
2013-03-29 06:54:00,38.0,-99.9,-100.00,WNW,286,8.0,12.0,-999,-99.99,,,-99.99,,2013-03-29 10:54:00,
2013-03-29 07:00:00,38.0,-99.9,-100.00,West,278,8.0,10.0,-999,-99.99,,,-99.99,,2013-03-29 11:00:00,
2013-03-29 07:24:00,38.0,-99.9,-100.00,West,278,8.0,10.0,-999,-99.99,,,-99.99,,2013-03-29 11:24:00,
2013-03-29 07:33:00,38.0,-99.9,-100.00,West,278,8.0,10.0,-999,-99.99,,,-99.99,,2013-03-29 11:33:00,
2013-03-29 07:43:00,38.0,-99.9,-100.00,West,278,8.0,10.0,-999,-99.99,,,-99.99,,2013-03-29 11:43:00,
2013-03-29 07:53:00,38.0,-99.9,-100.00,West,278,8.0,10.0,-999,-99.99,,,-99.99,,2013-03-29 11:53:00,
2013-03-29 08:00:00,38.0,-99.9,-100.00,WNW,286,10.0,14.0,-999,-99.99,,,-99.99,,2013-03-29 12:00:00,
2013-03-29 08:22:00,38.0,-99.9,-100.00,WNW,286,10.0,14.0,-999,-99.99,,,-99.99,,2013-03-29 12:22:00,
2013-03-29 08:33:00,38.0,-99.9,-100.00,WNW,286,10.0,14.0,-999,-99.99,,,-99.99,,2013-03-29 12:33:00,
2013-03-29 08:43:00,38.0,-99.9,-100.00,WNW,286,10.0,14.0,-999,-99.99,,,-99.99,,2013-03-29 12:43:00,
2013-03-29 08:53:00,38.0,-99.9,-100.00,WNW,286,10.0,14.0,-999,-99.99,,,-99.99,,2013-03-29 12:53:00,
2013-03-29 09:00:00,39.0,-99.9,-100.00,NW,309,11.0,15.0,-999,-99.99,,,-99.99,,2013-03-29 13:00:00,
2013-03-29 09:23:00,39.0,-99.9,-100.00,NW,309,11.0,15.0,-999,-99.99,,,-99.99,,2013-03-29 13:23:00,
2013-03-29 09:33:00,39.0,-99.9,-100.00,NW,309,11.0,15.0,-999,-99.99,,,-99.99,,2013-03-29 13:33:00,
2013-03-29 09:43:00,39.0,-99.9,-100.00,NW,309,11.0,15.0,-999,-99.99,,,-99.99,,2013-03-29 13:43:00,
2013-03-29 09:53:00,39.0,-99.9,-100.00,NW,309,11.0,15.0,-999,-99.99,,,-99.99,,2013-03-29 13:53:00,
2013-03-29 10:00:00,39.0,-99.9,-100.00,NW,304,11.0,15.0,-999,-99.99,,,-99.99,,2013-03-29 14:00:00,
2013-03-29 10:22:00,39.0,-99.9,-100.00,NW,304,11.0,15.0,-999,-99.99,,,-99.99,,2013-03-29 14:22:00,
2013-03-29 10:33:00,39.0,-99.9,-100.00,NW,304,11.0,15.0,-999,-99.99,,,-99.99,,2013-03-29 14:33:00,
2013-03-29 10:43:00,39.0,-99.9,-100.00,NW,304,11.0,15.0,-999,-99.99,,,-99.99,,2013-03-29 14:43:00,
2013-03-29 10:53:00,39.0,-99.9,-100.00,NW,304,11.0,15.0,-999,-99.99,,,-99.99,,2013-03-29 14:53:00,
2013-03-29 11:00:00,41.0,-99.9,-100.00,NW,310,10.0,13.0,-999,-99.99,,,-99.99,,2013-03-29 15:00:00,
2013-03-29 11:22:00,41.0,-99.9,-100.00,NW,310,10.0,13.0,-999,-99.99,,,-99.99,,2013-03-29 15:22:00,
2013-03-29 11:33:00,41.0,-99.9,-100.00,NW,310,10.0,13.0,-999,-99.99,,,-99.99,,2013-03-29 15:33:00,
2013-03-29 11:43:00,41.0,-99.9,-100.00,NW,310,10.0,13.0,-999,-99.99,,,-99.99,,2013-03-29 15:43:00,
2013-03-29 11:53:00,41.0,-99.9,-100.00,NW,310,10.0,13.0,-999,-99.99,,,-99.99,,2013-03-29 15:53:00,
2013-03-29 12:00:00,39.0,-99.9,-100.00,North,1,14.0,16.0,-999,-99.99,,,-99.99,,2013-03-29 16:00:00,
2013-03-29 12:23:00,39.0,-99.9,-100.00,North,1,14.0,16.0,-999,-99.99,,,-99.99,,2013-03-29 16:23:00,
2013-03-29 12:33:00,39.0,-99.9,-100.00,North,1,14.0,16.0,-999,-99.99,,,-99.99,,2013-03-29 16:33:00,
2013-03-29 12:43:00,39.0,-99.9,-100.00,North,1,14.0,16.0,-999,-99.99,,,-99.99,,2013-03-29 16:43:00,
2013-03-29 12:53:00,39.0,-99.9,-100.00,North,1,14.0,16.0,-999,-99.99,,,-99.99,,2013-03-29 16:53:00,
2013-03-29 13:00:00,38.0,-99.9,-100.00,North,7,14.0,16.0,-999,-99.99,,,-99.99,,2013-03-29 17:00:00,
2013-03-29 13:23:00,38.0,-99.9,-100.00,North,7,14.0,16.0,-999,-99.99,,,-99.99,,2013-03-29 17:23:00,
2013-03-29 13:34:00,38.0,-99.9,-100.00,North,7,14.0,16.0,-999,-99.99,,,-99.99,,2013-03-29 17:34:00,
2013-03-29 13:44:00,38.0,-99.9,-100.00,North,7,14.0,16.0,-999,-99.99,,,-99.99,,2013-03-29 17:44:00,
2013-03-29 13:53:00,38.0,-99.9,-100.00,North,7,14.0,16.0,-999,-99.99,,,-99.99,,2013-03-29 17:53:00,
2013-03-29 14:00:00,39.0,-99.9,-100.00,NNE,20,14.0,17.0,-999,-99.99,,,-99.99,,2013-03-29 18:00:00,
2013-03-29 14:23:00,39.0,-99.9,-100.00,NNE,20,14.0,17.0,-999,-99.99,,,-99.99,,2013-03-29 18:23:00,
2013-03-29 14:33:00,39.0,-99.9,-100.00,NNE,20,14.0,17.0,-999,-99.99,,,-99.99,,2013-03-29 18:33:00,
2013-03-29 14:43:00,39.0,-99.9,-100.00,NNE,20,14.0,17.0,-999,-99.99,,,-99.99,,2013-03-29 18:43:00,
2013-03-29 14:53:00,39.0,-99.9,-100.00,NNE,20,14.0,17.0,-999,-99.99,,,-99.99,,2013-03-29 18:53:00,
2013-03-29 15:00:00,40.0,-99.9,-100.00,North,7,17.0,20.0,-999,-99.99,,,-99.99,,2013-03-29 19:00:00,
2013-03-29 15:23:00,40.0,-99.9,-100.00,North,7,17.0,20.0,-999,-99.99,,,-99.99,,2013-03-29 19:23:00,
2013-03-29 15:33:00,40.0,-99.9,-100.00,North,7,17.0,20.0,-999,-99.99,,,-99.99,,2013-03-29 19:33:00,
2013-03-29 15:43:00,40.0,-99.9,-100.00,North,7,17.0,20.0,-999,-99.99,,,-99.99,,2013-03-29 19:43:00,
2013-03-29 15:53:00,40.0,-99.9,-100.00,North,7,17.0,20.0,-999,-99.99,,,-99.99,,2013-03-29 19:53:00,
2013-03-29 16:00:00,42.0,-99.9,-100.00,North,0,15.0,18.0,-999,-99.99,,,-99.99,,2013-03-29 20:00:00,
2013-03-29 16:23:00,42.0,-99.9,-100.00,North,0,15.0,18.0,-999,-99.99,,,-99.99,,2013-03-29 20:23:00,
2013-03-29 16:33:00,42.0,-99.9,-100.00,North,0,15.0,18.0,-999,-99.99,,,-99.99,,2013-03-29 20:33:00,
2013-03-29 16:42:00,42.0,-99.9,-100.00,North,0,15.0,18.0,-999,-99.99,,,-99.99,,2013-03-29 20:42:00,
2013-03-29 16:52:00,42.0,-99.9,-100.00,North,0,15.0,18.0,-999,-99.99,,,-99.99,,2013-03-29 20:52:00,
2013-03-29 17:00:00,43.0,-99.9,-100.00,North,355,12.0,15.0,-999,-99.99,,,-99.99,,2013-03-29 21:00:00,
2013-03-29 17:22:00,43.0,-99.9,-100.00,North,355,12.0,15.0,-999,-99.99,,,-99.99,,2013-03-29 21:22:00,
2013-03-29 17:33:00,43.0,-99.9,-100.00,North,355,12.0,15.0,-999,-99.99,,,-99.99,,2013-03-29 21:33:00,
2013-03-29 17:43:00,43.0,-99.9,-100.00,North,355,12.0,15.0,-999,-99.99,,,-99.99,,2013-03-29 21:43:00,
2013-03-29 17:53:00,43.0,-99.9,-100.00,North,355,12.0,15.0,-999,-99.99,,,-99.99,,2013-03-29 21:53:00,
2013-03-29 18:00:00,43.0,-99.9,-100.00,North,358,13.0,15.0,-999,-99.99,,,-99.99,,2013-03-29 22:00:00,
2013-03-29 18:23:00,43.0,-99.9,-100.00,North,358,13.0,15.0,-999,-99.99,,,-99.99,,2013-03-29 22:23:00,
2013-03-29 18:34:00,43.0,-99.9,-100.00,North,358,13.0,15.0,-999,-99.99,,,-99.99,,2013-03-29 22:34:00,
2013-03-29 18:43:00,43.0,-99.9,-100.00,North,358,13.0,15.0,-999,-99.99,,,-99.99,,2013-03-29 22:43:00,
2013-03-29 18:54:00,43.0,-99.9,-100.00,North,358,13.0,15.0,-999,-99.99,,,-99.99,,2013-03-29 22:54:00,
2013-03-29 19:00:00,43.0,-99.9,-100.00,North,355,10.0,14.0,-999,-99.99,,,-99.99,,2013-03-29 23:00:00,
2013-03-29 19:22:00,43.0,-99.9,-100.00,North,355,10.0,14.0,-999,-99.99,,,-99.99,,2013-03-29 23:22:00,
2013-03-29 19:33:00,43.0,-99.9,-100.00,North,355,10.0,14.0,-999,-99.99,,,-99.99,,2013-03-29 23:33:00,
2013-03-29 19:43:00,43.0,-99.9,-100.00,North,355,10.0,14.0,-999,-99.99,,,-99.99,,2013-03-29 23:43:00,
2013-03-29 19:53:00,43.0,-99.9,-100.00,North,355,10.0,14.0,-999,-99.99,,,-99.99,,2013-03-29 23:53:00,
2013-03-29 20:00:00,43.0,-99.9,-100.00,NNW,330,7.0,10.0,-999,-99.99,,,-99.99,,2013-03-30 00:00:00,
2013-03-29 20:23:00,43.0,-99.9,-100.00,NNW,330,7.0,10.0,-999,-99.99,,,-99.99,,2013-03-30 00:23:00,
2013-03-29 20:33:00,43.0,-99.9,-100.00,NNW,330,7.0,10.0,-999,-99.99,,,-99.99,,2013-03-30 00:33:00,
2013-03-29 20:43:00,43.0,-99.9,-100.00,NNW,330,7.0,10.0,-999,-99.99,,,-99.99,,2013-03-30 00:43:00,
2013-03-29 20:53:00,43.0,-99.9,-100.00,NNW,330,7.0,10.0,-999,-99.99,,,-99.99,,2013-03-30 00:53:00,
2013-03-29 21:00:00,46.0,-99.9,-100.00,WNW,292,6.0,9.0,-999,-99.99,,,-99.99,,2013-03-30 01:00:00,
2013-03-29 21:23:00,46.0,-99.9,-100.00,WNW,292,6.0,9.0,-999,-99.99,,,-99.99,,2013-03-30 01:23:00,
2013-03-29 21:33:00,46.0,-99.9,-100.00,WNW,292,6.0,9.0,-999,-99.99,,,-99.99,,2013-03-30 01:33:00,
2013-03-29 21:43:00,46.0,-99.9,-100.00,WNW,292,6.0,9.0,-999,-99.99,,,-99.99,,2013-03-30 01:43:00,
2013-03-29 21:53:00,46.0,-99.9,-100.00,WNW,292,6.0,9.0,-999,-99.99,,,-99.99,,2013-03-30 01:53:00,
2013-03-29 22:00:00,43.0,-99.9,-100.00,West,278,9.0,11.0,-999,-99.99,,,-99.99,,2013-03-30 02:00:00,
2013-03-29 22:23:00,43.0,-99.9,-100.00,West,278,9.0,11.0,-999,-99.99,,,-99.99,,2013-03-30 02:23:00,
2013-03-29 22:33:00,43.0,-99.9,-100.00,West,278,9.0,11.0,-999,-99.99,,,-99.99,,2013-03-30 02:33:00,
2013-03-29 22:43:00,43.0,-99.9,-100.00,West,278,9.0,11.0,-999,-99.99,,,-99.99,,2013-03-30 02:43:00,
2013-03-29 22:53:00,43.0,-99.9,-100.00,West,278,9.0,11.0,-999,-99.99,,,-99.99,,2013-03-30 02:53:00,
2013-03-29 23:00:00,41.0,-99.9,-100.00,WNW,287,10.0,12.0,-999,-99.99,,,-99.99,,2013-03-30 03:00:00,
2013-03-29 23:22:00,41.0,-99.9,-100.00,WNW,287,10.0,12.0,-999,-99.99,,,-99.99,,2013-03-30 03:22:00,
2013-03-29 23:33:00,41.0,-99.9,-100.00,WNW,287,10.0,12.0,-999,-99.99,,,-99.99,,2013-03-30 03:33:00,
2013-03-29 23:44:00,41.0,-99.9,-100.00,WNW,287,10.0,12.0,-999,-99.99,,,-99.99,,2013-03-30 03:44:00,
2013-03-29 23:53:00,41.0,-99.9,-100.00,WNW,287,10.0,12.0,-999,-99.99,,,-99.99,,2013-03-30 03:53:00,